createdAt,value
2022-10-16T00:01:23.668Z,7.55
2022-10-16T00:03:51.050Z,7.47
2022-10-16T00:06:19.035Z,5.22
2022-10-16T00:08:46.126Z,6.72
2022-10-16T00:11:18.051Z,6.22
2022-10-16T00:13:45.657Z,5.73
2022-10-16T00:16:13.975Z,6.32
2022-10-16T00:18:41.555Z,4.35
2022-10-16T00:21:10.203Z,4.47
2022-10-16T00:23:37.230Z,6.32
2022-10-16T00:26:05.833Z,6.07
2022-10-16T00:28:33.029Z,7.15
2022-10-16T00:31:02.691Z,5.57
2022-10-16T00:33:31.997Z,6.50
2022-10-16T00:35:59.741Z,6.20
2022-10-16T00:38:26.910Z,5.82
2022-10-16T00:40:53.895Z,5.13
2022-10-16T00:43:39.446Z,4.78
2022-10-16T00:46:11.227Z,5.18
2022-10-16T00:48:38.683Z,4.72
2022-10-16T00:51:07.574Z,4.97
2022-10-16T00:53:35.053Z,5.30
2022-10-16T00:56:02.646Z,4.15
2022-10-16T00:58:29.689Z,5.22
2022-10-16T01:00:56.771Z,5.10
2022-10-16T01:03:34.276Z,5.90
2022-10-16T01:06:09.309Z,6.47
2022-10-16T01:08:41.328Z,4.32
2022-10-16T01:11:13.484Z,6.05
2022-10-16T01:13:44.315Z,4.88
2022-10-16T01:16:19.715Z,4.60
2022-10-16T01:18:48.381Z,4.47
2022-10-16T01:21:23.794Z,5.90
2022-10-16T01:24:02.119Z,5.13
2022-10-16T01:26:44.262Z,4.35
2022-10-16T01:29:16.583Z,5.65
2022-10-16T01:31:49.867Z,5.40
2022-10-16T01:34:19.383Z,4.13
2022-10-16T01:36:53.236Z,4.20
2022-10-16T01:39:30.832Z,5.40
2022-10-16T01:42:01.680Z,6.70
2022-10-16T01:44:31.427Z,5.50
2022-10-16T01:46:58.642Z,3.50
2022-10-16T01:49:27.701Z,5.10
2022-10-16T01:51:57.316Z,3.55
2022-10-16T01:54:26.429Z,3.42
2022-10-16T01:56:53.660Z,2.90
2022-10-16T01:59:22.876Z,4.38
2022-10-16T02:01:57.254Z,4.97
2022-10-16T02:04:44.460Z,4.27
2022-10-16T02:07:12.534Z,3.63
2022-10-16T02:09:39.710Z,4.50
2022-10-16T02:12:12.831Z,3.20
2022-10-16T02:14:43.671Z,5.17
2022-10-16T02:17:15.892Z,4.75
2022-10-16T02:19:46.129Z,3.45
2022-10-16T02:22:29.006Z,5.33
2022-10-16T02:25:06.441Z,4.00
2022-10-16T02:27:39.317Z,3.75
2022-10-16T02:30:13.232Z,3.60
2022-10-16T02:32:41.953Z,4.95
2022-10-16T02:35:09.269Z,4.03
2022-10-16T02:37:37.115Z,3.38
2022-10-16T02:40:05.924Z,2.58
2022-10-16T02:42:42.553Z,3.25
2022-10-16T02:45:10.807Z,6.25
2022-10-16T02:47:37.874Z,3.90
2022-10-16T02:50:05.483Z,3.05
2022-10-16T02:52:32.531Z,4.25
2022-10-16T02:54:59.572Z,3.78
2022-10-16T02:57:26.833Z,4.55
2022-10-16T02:59:55.732Z,3.73
2022-10-16T03:02:22.771Z,3.42
2022-10-16T03:04:51.936Z,2.67
2022-10-16T03:07:18.963Z,2.95
2022-10-16T03:09:46.005Z,2.95
2022-10-16T03:12:13.076Z,3.53
2022-10-16T03:14:40.848Z,6.53
2022-10-16T03:17:07.878Z,3.20
2022-10-16T03:19:38.577Z,3.92
2022-10-16T03:22:05.604Z,4.22
2022-10-16T03:24:32.696Z,3.92
2022-10-16T03:26:59.739Z,4.50
2022-10-16T03:29:26.829Z,3.78
2022-10-16T03:31:53.999Z,3.67
2022-10-16T03:34:21.152Z,4.00
2022-10-16T03:36:48.566Z,4.68
2022-10-16T03:39:15.572Z,5.43
2022-10-16T03:41:42.614Z,4.67
2022-10-16T03:44:09.628Z,3.88
2022-10-16T03:46:36.640Z,3.63
2022-10-16T03:49:06.170Z,4.35
2022-10-16T03:51:35.930Z,2.70
2022-10-16T03:54:03.491Z,5.50
2022-10-16T03:56:31.743Z,4.00
2022-10-16T03:58:58.761Z,2.80
2022-10-16T04:01:25.965Z,3.70
2022-10-16T04:03:53.033Z,5.43
2022-10-16T04:06:20.093Z,4.10
2022-10-16T04:08:49.502Z,3.85
2022-10-16T04:11:16.604Z,2.33
2022-10-16T04:13:47.573Z,4.50
2022-10-16T04:16:14.971Z,4.80
2022-10-16T04:18:44.294Z,3.13
2022-10-16T04:21:12.624Z,3.00
2022-10-16T04:23:39.670Z,3.35
2022-10-16T04:26:06.808Z,4.72
2022-10-16T04:28:34.041Z,5.10
2022-10-16T04:31:01.333Z,4.35
2022-10-16T04:33:28.335Z,4.90
2022-10-16T04:35:58.919Z,3.00
2022-10-16T04:38:26.370Z,3.65
2022-10-16T04:40:53.792Z,3.65
2022-10-16T04:43:21.592Z,3.60
2022-10-16T04:45:48.664Z,4.80
2022-10-16T04:48:15.667Z,4.22
2022-10-16T04:50:42.961Z,4.63
2022-10-16T04:53:13.355Z,4.72
2022-10-16T04:55:40.442Z,3.72
2022-10-16T04:58:07.558Z,5.50
2022-10-16T05:00:34.666Z,4.70
2022-10-16T05:03:02.410Z,4.53
2022-10-16T05:05:29.624Z,3.05
2022-10-16T05:07:58.545Z,4.32
2022-10-16T05:10:25.572Z,3.70
2022-10-16T05:12:52.605Z,4.18
2022-10-16T05:15:20.347Z,4.13
2022-10-16T05:17:47.341Z,5.25
2022-10-16T05:20:14.406Z,6.85
2022-10-16T05:22:41.597Z,5.03
2022-10-16T05:25:08.721Z,3.28
2022-10-16T05:27:37.773Z,4.57
2022-10-16T05:30:07.418Z,3.55
2022-10-16T05:32:36.946Z,7.00
2022-10-16T05:35:06.481Z,4.53
2022-10-16T05:37:35.928Z,4.50
2022-10-16T05:40:03.775Z,4.03
2022-10-16T05:42:30.772Z,5.07
2022-10-16T05:44:57.979Z,5.40
2022-10-16T05:47:25.455Z,4.07
2022-10-16T05:49:52.894Z,5.45
2022-10-16T05:52:19.885Z,4.43
2022-10-16T05:54:47.061Z,3.67
2022-10-16T05:57:14.105Z,4.38
2022-10-16T05:59:44.002Z,5.00
2022-10-16T06:02:14.874Z,4.32
2022-10-16T06:04:42.094Z,3.58
2022-10-16T06:07:09.203Z,5.43
2022-10-16T06:09:36.303Z,4.53
2022-10-16T06:12:03.351Z,4.70
2022-10-16T06:14:30.369Z,6.78
2022-10-16T06:16:57.370Z,4.57
2022-10-16T06:19:26.862Z,4.78
2022-10-16T06:21:53.926Z,5.75
2022-10-16T06:24:22.601Z,4.47
2022-10-16T06:26:52.528Z,5.00
2022-10-16T06:29:19.550Z,4.47
2022-10-16T06:31:46.540Z,5.37
2022-10-16T06:34:13.592Z,5.65
2022-10-16T06:36:42.200Z,4.22
2022-10-16T06:39:09.256Z,5.50
2022-10-16T06:41:36.415Z,6.65
2022-10-16T06:44:06.370Z,4.93
2022-10-16T06:46:35.747Z,7.57
2022-10-16T06:49:02.767Z,6.47
2022-10-16T06:51:30.716Z,5.88
2022-10-16T06:54:05.254Z,6.40
2022-10-16T06:56:33.305Z,5.23
2022-10-16T06:59:00.840Z,4.03
2022-10-16T07:01:28.170Z,4.07
2022-10-16T07:03:55.548Z,3.95
2022-10-16T07:06:23.750Z,5.50
2022-10-16T07:08:51.279Z,3.75
2022-10-16T07:11:20.130Z,5.05
2022-10-16T07:13:51.035Z,5.72
2022-10-16T07:16:23.090Z,4.53
2022-10-16T07:18:55.021Z,7.05
2022-10-16T07:21:23.918Z,7.22
2022-10-16T07:23:57.781Z,5.35
2022-10-16T07:26:28.472Z,5.25
2022-10-16T07:28:58.385Z,5.85
2022-10-16T07:31:25.575Z,4.35
2022-10-16T07:33:52.879Z,6.10
2022-10-16T07:36:22.152Z,4.97
2022-10-16T07:38:49.186Z,5.75
2022-10-16T07:41:17.530Z,5.27
2022-10-16T07:43:48.432Z,6.10
2022-10-16T07:46:18.836Z,6.25
2022-10-16T07:48:48.025Z,5.07
2022-10-16T07:51:16.351Z,5.75
2022-10-16T07:53:49.602Z,5.63
2022-10-16T07:56:17.660Z,4.83
2022-10-16T07:58:44.861Z,6.85
2022-10-16T08:01:13.984Z,5.20
2022-10-16T08:03:43.697Z,5.40
2022-10-16T08:06:10.811Z,6.05
2022-10-16T08:08:37.838Z,4.88
2022-10-16T08:11:04.984Z,5.73
2022-10-16T08:13:32.403Z,6.95
2022-10-16T08:15:59.686Z,5.60
2022-10-16T08:18:26.973Z,5.57
2022-10-16T08:21:03.421Z,6.05
2022-10-16T08:23:30.801Z,8.00
2022-10-16T08:26:03.388Z,5.30
2022-10-16T08:28:30.581Z,8.35
2022-10-16T08:30:57.909Z,7.53
2022-10-16T08:33:24.988Z,5.55
2022-10-16T08:35:56.335Z,5.85
2022-10-16T08:38:23.449Z,5.95
2022-10-16T08:40:52.923Z,7.17
2022-10-16T08:43:21.880Z,7.00
2022-10-16T08:46:07.592Z,6.07
2022-10-16T08:48:44.111Z,7.35
2022-10-16T08:51:12.935Z,6.73
2022-10-16T08:53:44.565Z,6.28
2022-10-16T08:56:11.696Z,5.53
2022-10-16T08:58:38.885Z,6.60
2022-10-16T09:01:12.849Z,6.78
2022-10-16T09:03:58.637Z,6.03
2022-10-16T09:06:37.432Z,7.90
2022-10-16T09:09:23.028Z,6.45
2022-10-16T09:11:56.628Z,5.57
2022-10-16T09:14:42.543Z,5.57
2022-10-16T09:17:29.149Z,8.20
2022-10-16T09:20:14.901Z,5.70
2022-10-16T09:22:42.118Z,6.15
2022-10-16T09:25:16.601Z,7.57
2022-10-16T09:27:46.047Z,7.38
2022-10-16T09:30:23.860Z,4.88
2022-10-16T09:32:52.771Z,9.07
2022-10-16T09:35:22.286Z,8.77
2022-10-16T09:37:54.015Z,7.60
2022-10-16T09:40:35.312Z,7.07
2022-10-16T09:43:22.106Z,9.50
2022-10-16T09:45:58.293Z,9.82
2022-10-16T09:48:26.791Z,8.37
2022-10-16T09:50:57.747Z,8.35
2022-10-16T09:53:24.947Z,8.68
2022-10-16T09:55:53.005Z,8.77
2022-10-16T09:58:22.601Z,9.73
2022-10-16T10:00:55.510Z,9.43
2022-10-16T10:03:44.078Z,9.77
2022-10-16T10:06:34.715Z,8.97
2022-10-16T10:09:04.942Z,9.98
2022-10-16T10:11:49.607Z,8.07
2022-10-16T10:14:26.467Z,10.73
2022-10-16T10:16:54.689Z,8.75
2022-10-16T10:19:32.947Z,8.18
2022-10-16T10:22:00.175Z,8.93
2022-10-16T10:24:27.283Z,9.03
2022-10-16T10:26:58.084Z,10.55
2022-10-16T10:29:31.137Z,10.47
2022-10-16T10:32:12.580Z,11.18
2022-10-16T10:34:47.438Z,13.25
2022-10-16T10:37:14.453Z,13.23
2022-10-16T10:40:01.575Z,10.23
2022-10-16T10:42:31.413Z,9.65
2022-10-16T10:45:29.152Z,11.23
2022-10-16T10:47:58.946Z,13.63
2022-10-16T10:50:45.747Z,13.38
2022-10-16T10:53:18.936Z,10.18
2022-10-16T10:55:58.742Z,7.32
2022-10-16T10:58:44.571Z,14.27
2022-10-16T11:01:21.756Z,11.82
2022-10-16T11:04:16.942Z,11.50
2022-10-16T11:06:47.306Z,9.23
2022-10-16T11:09:21.930Z,12.52
2022-10-16T11:12:08.803Z,9.93
2022-10-16T11:14:38.113Z,10.77
2022-10-16T11:17:31.264Z,8.40
2022-10-16T11:20:04.281Z,10.02
2022-10-16T11:22:36.121Z,7.05
2022-10-16T11:25:21.871Z,8.90
2022-10-16T11:28:10.363Z,10.18
2022-10-16T11:30:57.373Z,7.70
2022-10-16T11:33:42.802Z,8.40
2022-10-16T11:36:12.555Z,9.55
2022-10-16T11:38:39.619Z,10.05
2022-10-16T11:41:20.628Z,10.60
2022-10-16T11:43:57.935Z,10.65
2022-10-16T11:46:25.986Z,10.35
2022-10-16T11:49:14.472Z,10.10
2022-10-16T11:51:43.887Z,10.80
2022-10-16T11:54:32.074Z,11.27
2022-10-16T11:57:02.500Z,11.32
2022-10-16T11:59:40.860Z,10.15
2022-10-16T12:02:20.247Z,14.68
2022-10-16T12:04:51.871Z,11.57
2022-10-16T12:07:27.921Z,11.60
2022-10-16T12:10:01.626Z,9.32
2022-10-16T12:12:38.294Z,9.48
2022-10-16T12:15:29.762Z,11.37
2022-10-16T12:18:02.344Z,11.73
2022-10-16T12:20:37.434Z,13.80
2022-10-16T12:23:06.276Z,10.27
2022-10-16T12:25:36.298Z,12.23
2022-10-16T12:28:04.572Z,10.50
2022-10-16T12:30:36.105Z,10.57
2022-10-16T12:33:07.887Z,9.57
2022-10-16T12:35:38.364Z,8.10
2022-10-16T12:38:34.603Z,9.50
2022-10-16T12:41:03.542Z,8.20
2022-10-16T12:43:33.773Z,11.25
2022-10-16T12:46:02.211Z,6.73
2022-10-16T12:48:42.413Z,8.20
2022-10-16T12:51:26.825Z,6.72
2022-10-16T12:54:13.201Z,7.15
2022-10-16T12:57:09.683Z,6.70
2022-10-16T12:59:39.523Z,7.53
2022-10-16T13:02:25.086Z,6.57
2022-10-16T13:05:17.136Z,7.73
2022-10-16T13:07:58.058Z,6.63
2022-10-16T13:10:28.547Z,7.23
2022-10-16T13:13:07.690Z,7.53
2022-10-16T13:15:51.793Z,5.35
2022-10-16T13:18:25.551Z,5.57
2022-10-16T13:21:01.803Z,7.07
2022-10-16T13:23:39.408Z,7.35
2022-10-16T13:26:06.481Z,8.25
2022-10-16T13:28:35.202Z,7.13
2022-10-16T13:31:03.024Z,5.60
2022-10-16T13:33:34.744Z,6.22
2022-10-16T13:36:01.917Z,6.88
2022-10-16T13:38:32.935Z,7.03
2022-10-16T13:41:04.305Z,6.10
2022-10-16T13:43:34.339Z,8.48
2022-10-16T13:46:06.415Z,7.25
2022-10-16T13:48:34.393Z,4.72
2022-10-16T13:51:06.959Z,5.93
2022-10-16T13:53:37.397Z,8.27
2022-10-16T13:56:05.695Z,6.87
2022-10-16T13:58:32.787Z,6.37
2022-10-16T14:00:59.812Z,6.72
2022-10-16T14:03:27.517Z,4.88
2022-10-16T14:05:59.514Z,6.70
2022-10-16T14:08:27.746Z,5.63
2022-10-16T14:10:56.750Z,8.23
2022-10-16T14:13:31.506Z,6.47
2022-10-16T14:15:59.615Z,7.00
2022-10-16T14:18:35.042Z,7.28
2022-10-16T14:21:08.204Z,6.97
2022-10-16T14:23:35.461Z,7.53
2022-10-16T14:26:15.904Z,5.15
2022-10-16T14:28:44.065Z,6.65
2022-10-16T14:31:30.079Z,7.43
2022-10-16T14:33:57.334Z,6.28
2022-10-16T14:36:25.636Z,6.00
2022-10-16T14:39:12.900Z,6.97
2022-10-16T14:41:45.596Z,6.87
2022-10-16T14:44:13.770Z,7.05
2022-10-16T14:46:42.385Z,8.27
2022-10-16T14:49:12.315Z,6.15
2022-10-16T14:51:41.942Z,5.70
2022-10-16T14:54:10.374Z,6.53
2022-10-16T14:56:46.607Z,8.27
2022-10-16T14:59:16.243Z,4.97
2022-10-16T15:01:44.737Z,9.93
2022-10-16T15:04:13.538Z,5.15
2022-10-16T15:06:40.679Z,6.82
2022-10-16T15:09:08.853Z,6.50
2022-10-16T15:11:36.368Z,6.60
2022-10-16T15:14:04.485Z,6.17
2022-10-16T15:16:38.957Z,6.43
2022-10-16T15:19:05.971Z,5.57
2022-10-16T15:21:33.766Z,6.60
2022-10-16T15:24:01.683Z,5.38
2022-10-16T15:26:29.271Z,6.53
2022-10-16T15:28:59.270Z,6.78
2022-10-16T15:31:26.435Z,6.23
2022-10-16T15:34:02.481Z,7.70
2022-10-16T15:36:30.288Z,5.35
2022-10-16T15:38:57.530Z,5.95
2022-10-16T15:41:24.840Z,6.13
2022-10-16T15:43:52.086Z,6.13
2022-10-16T15:46:20.411Z,8.30
2022-10-16T15:48:48.225Z,7.20
2022-10-16T15:51:15.625Z,6.50
2022-10-16T15:53:42.763Z,5.20
2022-10-16T15:56:10.849Z,7.00
2022-10-16T15:58:38.321Z,8.27
2022-10-16T16:01:05.660Z,6.78
2022-10-16T16:03:36.774Z,6.07
2022-10-16T16:06:07.898Z,6.95
2022-10-16T16:08:35.375Z,7.10
2022-10-16T16:11:03.559Z,7.28
2022-10-16T16:13:30.742Z,6.93
2022-10-16T16:15:59.591Z,6.20
2022-10-16T16:18:26.811Z,7.53
2022-10-16T16:20:56.042Z,9.73
2022-10-16T16:23:29.021Z,7.30
2022-10-16T16:26:10.943Z,7.57
2022-10-16T16:28:41.239Z,6.40
2022-10-16T16:31:11.746Z,7.13
2022-10-16T16:33:41.944Z,7.45
2022-10-16T16:36:14.537Z,7.57
2022-10-16T16:38:42.668Z,6.63
2022-10-16T16:41:16.305Z,9.50
2022-10-16T16:43:43.543Z,9.13
2022-10-16T16:46:10.615Z,7.97
2022-10-16T16:48:38.633Z,10.27
2022-10-16T16:51:09.623Z,6.97
2022-10-16T16:53:37.136Z,9.70
2022-10-16T16:56:05.086Z,8.67
2022-10-16T16:58:32.628Z,7.93
2022-10-16T17:01:19.358Z,6.45
2022-10-16T17:03:47.095Z,8.10
2022-10-16T17:06:20.597Z,7.47
2022-10-16T17:08:48.565Z,9.43
2022-10-16T17:11:19.616Z,7.22
2022-10-16T17:13:52.486Z,9.60
2022-10-16T17:16:23.753Z,6.68
2022-10-16T17:18:50.787Z,8.70
2022-10-16T17:21:17.921Z,7.20
2022-10-16T17:23:47.812Z,10.43
2022-10-16T17:26:15.987Z,8.98
2022-10-16T17:28:43.667Z,8.02
2022-10-16T17:31:15.792Z,6.78
2022-10-16T17:33:43.348Z,8.38
2022-10-16T17:36:11.787Z,8.68
2022-10-16T17:38:39.024Z,9.20
2022-10-16T17:41:18.004Z,8.10
2022-10-16T17:43:48.305Z,7.43
2022-10-16T17:46:16.280Z,6.70
2022-10-16T17:48:45.488Z,8.43
2022-10-16T17:51:13.766Z,9.20
2022-10-16T17:53:40.871Z,7.68
2022-10-16T17:56:14.955Z,9.10
2022-10-16T17:58:43.172Z,8.48
2022-10-16T18:01:19.074Z,8.10
2022-10-16T18:03:52.657Z,10.70
2022-10-16T18:06:22.981Z,11.23
2022-10-16T18:08:50.672Z,12.68
2022-10-16T18:11:17.853Z,6.93
2022-10-16T18:13:44.914Z,9.63
2022-10-16T18:16:17.717Z,11.23
2022-10-16T18:18:45.117Z,9.68
2022-10-16T18:21:13.317Z,9.90
2022-10-16T18:23:40.831Z,9.80
2022-10-16T18:26:10.880Z,10.75
2022-10-16T18:28:38.506Z,10.70
2022-10-16T18:31:08.206Z,10.18
2022-10-16T18:33:35.212Z,12.98
2022-10-16T18:36:06.427Z,11.47
2022-10-16T18:38:33.838Z,10.73
2022-10-16T18:41:05.568Z,9.25
2022-10-16T18:43:34.800Z,9.02
2022-10-16T18:46:03.349Z,8.37
2022-10-16T18:48:33.773Z,8.25
2022-10-16T18:51:27.099Z,8.15
2022-10-16T18:53:58.438Z,9.05
2022-10-16T18:56:26.115Z,9.33
2022-10-16T18:58:53.755Z,7.75
2022-10-16T19:01:28.084Z,8.18
2022-10-16T19:03:59.690Z,7.55
2022-10-16T19:06:27.601Z,6.22
2022-10-16T19:08:55.763Z,8.50
2022-10-16T19:11:23.712Z,8.90
2022-10-16T19:13:51.025Z,7.35
2022-10-16T19:16:20.983Z,7.10
2022-10-16T19:18:49.417Z,8.88
2022-10-16T19:21:18.619Z,10.03
2022-10-16T19:23:46.156Z,7.90
2022-10-16T19:26:17.152Z,8.53
2022-10-16T19:28:44.970Z,8.00
2022-10-16T19:31:19.334Z,5.97
2022-10-16T19:33:53.382Z,9.48
2022-10-16T19:36:23.587Z,8.32
2022-10-16T19:38:58.245Z,8.30
2022-10-16T19:41:25.943Z,7.60
2022-10-16T19:43:54.051Z,8.52
2022-10-16T19:46:23.176Z,7.35
2022-10-16T19:48:50.570Z,6.60
2022-10-16T19:51:19.646Z,7.07
2022-10-16T19:53:50.013Z,8.17
2022-10-16T19:56:19.158Z,7.22
2022-10-16T19:58:46.976Z,9.80
2022-10-16T20:01:21.282Z,7.53
2022-10-16T20:03:50.117Z,8.33
2022-10-16T20:06:17.861Z,9.00
2022-10-16T20:08:46.540Z,10.40
2022-10-16T20:11:14.718Z,8.40
2022-10-16T20:13:42.527Z,8.05
2022-10-16T20:16:10.247Z,7.50
2022-10-16T20:18:37.501Z,9.80
2022-10-16T20:21:09.680Z,10.07
2022-10-16T20:23:36.737Z,10.98
2022-10-16T20:26:04.385Z,9.88
2022-10-16T20:28:31.800Z,8.15
2022-10-16T20:30:58.911Z,7.73
2022-10-16T20:33:30.339Z,8.40
2022-10-16T20:36:01.596Z,8.80
2022-10-16T20:38:28.774Z,8.50
2022-10-16T20:41:11.607Z,10.82
2022-10-16T20:46:17.648Z,7.60
2022-10-16T20:48:44.920Z,9.10
2022-10-16T20:51:16.049Z,10.47
2022-10-16T20:53:45.948Z,10.48
2022-10-16T20:56:18.740Z,9.80
2022-10-16T20:58:49.053Z,12.35
2022-10-16T21:01:26.252Z,11.95
2022-10-16T21:03:57.872Z,9.98
2022-10-16T21:06:27.959Z,9.88
2022-10-16T21:08:58.798Z,9.82
2022-10-16T21:11:35.709Z,8.90
2022-10-16T21:14:03.813Z,10.00
2022-10-16T21:16:31.283Z,10.10
2022-10-16T21:18:58.274Z,11.57
2022-10-16T21:21:29.846Z,7.82
2022-10-16T21:23:57.599Z,9.32
2022-10-16T21:26:30.564Z,11.93
2022-10-16T21:29:01.840Z,9.15
2022-10-16T21:31:29.357Z,10.73
2022-10-16T21:33:56.668Z,11.43
2022-10-16T21:36:24.974Z,9.65
2022-10-16T21:38:53.028Z,11.20
2022-10-16T21:41:21.613Z,11.43
2022-10-16T21:43:48.971Z,11.85
2022-10-16T21:46:17.070Z,10.15
2022-10-16T21:49:01.934Z,10.00
2022-10-16T21:51:30.184Z,13.60
2022-10-16T21:53:57.293Z,9.65
2022-10-16T21:56:27.022Z,8.95
2022-10-16T21:58:55.858Z,11.63
2022-10-16T22:01:24.094Z,10.07
2022-10-16T22:03:51.183Z,11.48
2022-10-16T22:06:19.762Z,13.70
2022-10-16T22:08:47.816Z,12.87
2022-10-16T22:11:16.319Z,11.27
2022-10-16T22:13:43.576Z,10.30
2022-10-16T22:16:10.980Z,9.52
2022-10-16T22:18:39.213Z,11.55
2022-10-16T22:21:07.253Z,11.10
2022-10-16T22:23:34.406Z,9.48
2022-10-16T22:26:02.161Z,10.10
2022-10-16T22:28:35.596Z,11.23
2022-10-16T22:31:06.726Z,13.45
2022-10-16T22:36:06.506Z,11.88
2022-10-16T22:38:34.057Z,9.40
2022-10-16T22:41:09.065Z,10.60
2022-10-16T22:43:39.368Z,11.03
2022-10-16T22:46:10.240Z,11.68
2022-10-16T22:48:37.611Z,12.63
2022-10-16T22:51:05.286Z,10.45
2022-10-16T22:53:35.538Z,11.80
2022-10-16T22:56:02.996Z,11.13
2022-10-16T22:58:30.170Z,11.90
2022-10-16T23:03:26.118Z,11.45
2022-10-16T23:05:54.197Z,12.20
2022-10-16T23:08:21.243Z,12.88
2022-10-16T23:10:51.949Z,11.70
2022-10-16T23:13:19.015Z,11.07
2022-10-16T23:15:46.226Z,11.87
2022-10-16T23:18:13.390Z,10.95
2022-10-16T23:20:43.955Z,12.18
2022-10-16T23:23:10.988Z,12.70
2022-10-16T23:25:38.308Z,10.45
2022-10-16T23:28:05.390Z,11.32
2022-10-16T23:30:32.518Z,11.15
2022-10-16T23:32:59.584Z,10.82
2022-10-16T23:35:26.623Z,12.18
2022-10-16T23:37:53.656Z,10.73
2022-10-16T23:40:20.786Z,11.00
2022-10-16T23:42:47.835Z,9.40
2022-10-16T23:45:14.932Z,12.70
2022-10-16T23:47:41.942Z,11.15
2022-10-16T23:50:12.880Z,11.35
2022-10-16T23:52:39.914Z,10.88
2022-10-16T23:55:07.083Z,10.23
2022-10-16T23:57:37.126Z,9.85
